sensor_id;sensor_type;location;lat;lon;timestamp;pressure;altitude;pressure_sealevel;temperature;humidity
71109;BME280;59614;51.012;-1.648;2022-07-23T00:00:08;101085.66;;;14.15;99.63
71109;BME280;59614;51.012;-1.648;2022-07-23T00:02:33;101086.63;;;14.11;99.85
71109;BME280;59614;51.012;-1.648;2022-07-23T00:04:59;101078.78;;;14.07;100.00
71109;BME280;59614;51.012;-1.648;2022-07-23T00:07:24;101084.22;;;13.99;99.27
71109;BME280;59614;51.012;-1.648;2022-07-23T00:09:50;101081.63;;;13.96;99.87
71109;BME280;59614;51.012;-1.648;2022-07-23T00:12:15;101086.13;;;13.92;99.61
71109;BME280;59614;51.012;-1.648;2022-07-23T00:14:41;101074.72;;;13.87;99.58
71109;BME280;59614;51.012;-1.648;2022-07-23T00:17:06;101077.47;;;13.84;99.40
71109;BME280;59614;51.012;-1.648;2022-07-23T00:19:32;101078.38;;;13.81;99.60
71109;BME280;59614;51.012;-1.648;2022-07-23T00:21:57;101071.41;;;13.75;99.42
71109;BME280;59614;51.012;-1.648;2022-07-23T00:24:23;101071.47;;;13.72;99.31
71109;BME280;59614;51.012;-1.648;2022-07-23T00:26:48;101075.13;;;13.67;99.37
71109;BME280;59614;51.012;-1.648;2022-07-23T00:29:14;101068.97;;;13.65;99.08
71109;BME280;59614;51.012;-1.648;2022-07-23T00:31:39;101068.13;;;13.63;99.34
71109;BME280;59614;51.012;-1.648;2022-07-23T00:34:05;101070.81;;;13.61;99.51
71109;BME280;59614;51.012;-1.648;2022-07-23T00:36:31;101068.28;;;13.53;99.64
71109;BME280;59614;51.012;-1.648;2022-07-23T00:38:56;101068.31;;;13.52;99.34
71109;BME280;59614;51.012;-1.648;2022-07-23T00:41:23;101072.72;;;13.53;99.31
71109;BME280;59614;51.012;-1.648;2022-07-23T00:43:48;101074.59;;;13.48;99.34
71109;BME280;59614;51.012;-1.648;2022-07-23T00:46:19;101071.81;;;13.54;99.64
71109;BME280;59614;51.012;-1.648;2022-07-23T00:48:45;101069.28;;;13.48;99.02
71109;BME280;59614;51.012;-1.648;2022-07-23T00:51:10;101071.16;;;13.41;98.89
71109;BME280;59614;51.012;-1.648;2022-07-23T00:53:36;101079.09;;;13.42;99.44
71109;BME280;59614;51.012;-1.648;2022-07-23T00:56:02;101078.28;;;13.37;99.37
71109;BME280;59614;51.012;-1.648;2022-07-23T00:58:27;101077.50;;;13.29;98.92
71109;BME280;59614;51.012;-1.648;2022-07-23T01:00:53;101073.94;;;13.32;99.38
71109;BME280;59614;51.012;-1.648;2022-07-23T01:03:18;101078.31;;;13.34;99.14
71109;BME280;59614;51.012;-1.648;2022-07-23T01:05:44;101077.47;;;13.32;99.15
71109;BME280;59614;51.012;-1.648;2022-07-23T01:08:10;101074.81;;;13.32;99.79
71109;BME280;59614;51.012;-1.648;2022-07-23T01:10:36;101069.56;;;13.29;99.76
71109;BME280;59614;51.012;-1.648;2022-07-23T01:13:07;101066.97;;;13.26;99.95
71109;BME280;59614;51.012;-1.648;2022-07-23T01:15:34;101065.28;;;13.22;99.67
71109;BME280;59614;51.012;-1.648;2022-07-23T01:18:00;101061.75;;;13.20;100.00
71109;BME280;59614;51.012;-1.648;2022-07-23T01:20:26;101062.66;;;13.20;100.00
71109;BME280;59614;51.012;-1.648;2022-07-23T01:22:52;101061.00;;;13.15;99.55
71109;BME280;59614;51.012;-1.648;2022-07-23T01:25:18;101061.00;;;13.15;99.85
71109;BME280;59614;51.012;-1.648;2022-07-23T01:27:44;101054.75;;;13.17;100.00
71109;BME280;59614;51.012;-1.648;2022-07-23T01:30:10;101057.44;;;13.16;100.00
71109;BME280;59614;51.012;-1.648;2022-07-23T01:32:36;101050.47;;;13.08;99.40
71109;BME280;59614;51.012;-1.648;2022-07-23T01:35:02;101066.38;;;13.08;100.00
71109;BME280;59614;51.012;-1.648;2022-07-23T01:37:28;101049.66;;;13.05;99.86
71109;BME280;59614;51.012;-1.648;2022-07-23T01:39:53;101050.59;;;13.02;99.89
71109;BME280;59614;51.012;-1.648;2022-07-23T01:42:18;101055.00;;;13.02;100.00
71109;BME280;59614;51.012;-1.648;2022-07-23T01:44:44;101043.56;;;12.98;99.97
71109;BME280;59614;51.012;-1.648;2022-07-23T01:47:10;101053.19;;;13.04;100.00
71109;BME280;59614;51.012;-1.648;2022-07-23T01:49:35;101048.88;;;13.00;100.00
71109;BME280;59614;51.012;-1.648;2022-07-23T01:52:00;101060.38;;;12.97;99.84
71109;BME280;59614;51.012;-1.648;2022-07-23T01:54:31;101052.56;;;12.88;99.17
71109;BME280;59614;51.012;-1.648;2022-07-23T01:56:57;101057.09;;;12.82;99.04
71109;BME280;59614;51.012;-1.648;2022-07-23T01:59:23;101051.78;;;12.81;99.63
71109;BME280;59614;51.012;-1.648;2022-07-23T02:01:49;101057.91;;;12.85;99.68
71109;BME280;59614;51.012;-1.648;2022-07-23T02:04:17;101055.31;;;12.83;100.00
71109;BME280;59614;51.012;-1.648;2022-07-23T02:06:42;101045.66;;;12.79;100.00
71109;BME280;59614;51.012;-1.648;2022-07-23T02:09:07;101051.97;;;12.69;99.71
71109;BME280;59614;51.012;-1.648;2022-07-23T02:11:33;101049.25;;;12.73;100.00
71109;BME280;59614;51.012;-1.648;2022-07-23T02:13:59;101045.88;;;12.65;100.00
71109;BME280;59614;51.012;-1.648;2022-07-23T02:16:24;101046.75;;;12.64;100.00
71109;BME280;59614;51.012;-1.648;2022-07-23T02:18:49;101054.69;;;12.64;100.00
71109;BME280;59614;51.012;-1.648;2022-07-23T02:21:15;101053.03;;;12.60;100.00
71109;BME280;59614;51.012;-1.648;2022-07-23T02:23:40;101048.50;;;12.66;100.00
71109;BME280;59614;51.012;-1.648;2022-07-23T02:26:06;101057.34;;;12.65;100.00
71109;BME280;59614;51.012;-1.648;2022-07-23T02:28:31;101053.03;;;12.60;100.00
71109;BME280;59614;51.012;-1.648;2022-07-23T02:30:57;101045.09;;;12.57;100.00
71109;BME280;59614;51.012;-1.648;2022-07-23T02:33:22;101047.75;;;12.57;100.00
71109;BME280;59614;51.012;-1.648;2022-07-23T02:35:48;101050.34;;;12.61;100.00
71109;BME280;59614;51.012;-1.648;2022-07-23T02:38:14;101052.13;;;12.59;100.00
71109;BME280;59614;51.012;-1.648;2022-07-23T02:40:39;101054.94;;;12.48;100.00
71109;BME280;59614;51.012;-1.648;2022-07-23T02:43:05;101051.34;;;12.52;100.00
71109;BME280;59614;51.012;-1.648;2022-07-23T02:45:30;101058.41;;;12.50;100.00
71109;BME280;59614;51.012;-1.648;2022-07-23T02:47:56;101055.88;;;12.44;100.00
71109;BME280;59614;51.012;-1.648;2022-07-23T02:50:21;101057.69;;;12.39;100.00
71109;BME280;59614;51.012;-1.648;2022-07-23T02:52:47;101056.81;;;12.40;100.00
71109;BME280;59614;51.012;-1.648;2022-07-23T02:55:12;101066.56;;;12.36;100.00
71109;BME280;59614;51.012;-1.648;2022-07-23T02:57:38;101071.88;;;12.33;100.00
71109;BME280;59614;51.012;-1.648;2022-07-23T03:00:04;101072.78;;;12.34;100.00
71109;BME280;59614;51.012;-1.648;2022-07-23T03:02:30;101074.53;;;12.35;100.00
71109;BME280;59614;51.012;-1.648;2022-07-23T03:04:56;101076.34;;;12.30;100.00
71109;BME280;59614;51.012;-1.648;2022-07-23T03:07:21;101067.56;;;12.28;100.00
71109;BME280;59614;51.012;-1.648;2022-07-23T03:09:47;101071.16;;;12.24;100.00
71109;BME280;59614;51.012;-1.648;2022-07-23T03:12:13;101068.63;;;12.13;99.71
71109;BME280;59614;51.012;-1.648;2022-07-23T03:14:38;101072.13;;;12.15;100.00
71109;BME280;59614;51.012;-1.648;2022-07-23T03:17:04;101067.75;;;12.15;100.00
71109;BME280;59614;51.012;-1.648;2022-07-23T03:19:30;101066.03;;;12.08;100.00
71109;BME280;59614;51.012;-1.648;2022-07-23T03:21:55;101056.41;;;12.02;100.00
71109;BME280;59614;51.012;-1.648;2022-07-23T03:24:20;101068.78;;;12.00;100.00
71109;BME280;59614;51.012;-1.648;2022-07-23T03:26:48;101069.69;;;12.01;100.00
71109;BME280;59614;51.012;-1.648;2022-07-23T03:29:14;101065.25;;;12.03;100.00
71109;BME280;59614;51.012;-1.648;2022-07-23T03:31:39;101064.38;;;12.01;100.00
71109;BME280;59614;51.012;-1.648;2022-07-23T03:34:05;101067.91;;;12.00;100.00
71109;BME280;59614;51.012;-1.648;2022-07-23T03:36:30;101069.66;;;12.02;100.00
71109;BME280;59614;51.012;-1.648;2022-07-23T03:38:56;101076.72;;;12.02;100.00
71109;BME280;59614;51.012;-1.648;2022-07-23T03:41:21;101074.13;;;11.94;100.00
71109;BME280;59614;51.012;-1.648;2022-07-23T03:43:47;101063.63;;;11.86;99.99
71109;BME280;59614;51.012;-1.648;2022-07-23T03:46:14;101068.88;;;11.88;100.00
71109;BME280;59614;51.012;-1.648;2022-07-23T03:48:39;101063.63;;;11.86;100.00
71109;BME280;59614;51.012;-1.648;2022-07-23T03:51:05;101073.41;;;11.81;100.00
71109;BME280;59614;51.012;-1.648;2022-07-23T03:53:30;101074.28;;;11.79;100.00
71109;BME280;59614;51.012;-1.648;2022-07-23T03:55:56;101071.69;;;11.76;100.00
71109;BME280;59614;51.012;-1.648;2022-07-23T03:58:21;101071.81;;;11.65;100.00
71109;BME280;59614;51.012;-1.648;2022-07-23T04:00:47;101068.34;;;11.59;99.92
71109;BME280;59614;51.012;-1.648;2022-07-23T04:03:12;101068.41;;;11.52;99.93
71109;BME280;59614;51.012;-1.648;2022-07-23T04:05:38;101063.97;;;11.55;100.00
71109;BME280;59614;51.012;-1.648;2022-07-23T04:08:03;101067.53;;;11.51;99.97
71109;BME280;59614;51.012;-1.648;2022-07-23T04:10:29;101060.34;;;11.63;100.00
71109;BME280;59614;51.012;-1.648;2022-07-23T04:12:54;101059.47;;;11.64;100.00
71109;BME280;59614;51.012;-1.648;2022-07-23T04:15:20;101054.16;;;11.65;100.00
71109;BME280;59614;51.012;-1.648;2022-07-23T04:17:45;101066.53;;;11.62;100.00
71109;BME280;59614;51.012;-1.648;2022-07-23T04:20:12;101070.97;;;11.58;100.00
71109;BME280;59614;51.012;-1.648;2022-07-23T04:22:37;101064.88;;;11.51;99.96
71109;BME280;59614;51.012;-1.648;2022-07-23T04:25:03;101065.78;;;11.52;100.00
71109;BME280;59614;51.012;-1.648;2022-07-23T04:27:29;101072.78;;;11.54;100.00
71109;BME280;59614;51.012;-1.648;2022-07-23T04:29:54;101078.91;;;11.59;100.00
71109;BME280;59614;51.012;-1.648;2022-07-23T04:32:20;101074.56;;;11.54;100.00
71109;BME280;59614;51.012;-1.648;2022-07-23T04:34:45;101082.50;;;11.52;99.85
71109;BME280;59614;51.012;-1.648;2022-07-23T04:37:11;101072.88;;;11.43;99.97
71109;BME280;59614;51.012;-1.648;2022-07-23T04:39:36;101078.16;;;11.48;100.00
71109;BME280;59614;51.012;-1.648;2022-07-23T04:42:02;101071.94;;;11.51;100.00
71109;BME280;59614;51.012;-1.648;2022-07-23T04:44:27;101069.28;;;11.54;100.00
71109;BME280;59614;51.012;-1.648;2022-07-23T04:46:52;101061.31;;;11.55;100.00
71109;BME280;59614;51.012;-1.648;2022-07-23T04:49:18;101071.94;;;11.54;100.00
71109;BME280;59614;51.012;-1.648;2022-07-23T04:51:43;101067.56;;;11.47;99.63
71109;BME280;59614;51.012;-1.648;2022-07-23T04:54:09;101065.78;;;11.50;99.97
71109;BME280;59614;51.012;-1.648;2022-07-23T04:56:34;101073.75;;;11.46;99.40
71109;BME280;59614;51.012;-1.648;2022-07-23T04:59:00;101072.00;;;11.46;99.57
71109;BME280;59614;51.012;-1.648;2022-07-23T05:01:25;101074.59;;;11.51;99.75
71109;BME280;59614;51.012;-1.648;2022-07-23T05:03:51;101076.31;;;11.53;99.65
71109;BME280;59614;51.012;-1.648;2022-07-23T05:06:16;101073.63;;;11.59;99.61
71109;BME280;59614;51.012;-1.648;2022-07-23T05:08:42;101073.69;;;11.53;99.59
71109;BME280;59614;51.012;-1.648;2022-07-23T05:11:07;101070.16;;;11.54;99.73
71109;BME280;59614;51.012;-1.648;2022-07-23T05:13:33;101075.41;;;11.57;99.96
71109;BME280;59614;51.012;-1.648;2022-07-23T05:15:58;101084.19;;;11.61;99.78
71109;BME280;59614;51.012;-1.648;2022-07-23T05:18:23;101085.81;;;11.73;99.89
71109;BME280;59614;51.012;-1.648;2022-07-23T05:20:49;101094.56;;;11.80;99.67
71109;BME280;59614;51.012;-1.648;2022-07-23T05:23:14;101089.16;;;11.90;100.00
71109;BME280;59614;51.012;-1.648;2022-07-23T05:25:40;101088.19;;;11.99;99.79
71109;BME280;59614;51.012;-1.648;2022-07-23T05:28:05;101086.31;;;12.09;99.63
71109;BME280;59614;51.012;-1.648;2022-07-23T05:30:31;101090.53;;;12.26;99.74
71109;BME280;59614;51.012;-1.648;2022-07-23T05:32:56;101097.53;;;12.30;99.50
71109;BME280;59614;51.012;-1.648;2022-07-23T05:35:22;101090.38;;;12.38;99.37
71109;BME280;59614;51.012;-1.648;2022-07-23T05:37:47;101084.09;;;12.45;98.80
71109;BME280;59614;51.012;-1.648;2022-07-23T05:40:13;101069.88;;;12.52;98.19
71109;BME280;59614;51.012;-1.648;2022-07-23T05:42:40;101075.00;;;12.65;97.95
71109;BME280;59614;51.012;-1.648;2022-07-23T05:45:06;101074.91;;;12.71;97.61
71109;BME280;59614;51.012;-1.648;2022-07-23T05:47:42;101079.19;;;12.81;97.71
71109;BME280;59614;51.012;-1.648;2022-07-23T05:50:08;101079.09;;;12.85;97.99
71109;BME280;59614;51.012;-1.648;2022-07-23T05:52:34;101082.56;;;12.90;98.44
71109;BME280;59614;51.012;-1.648;2022-07-23T05:55:00;101086.78;;;13.03;98.66
71109;BME280;59614;51.012;-1.648;2022-07-23T05:57:25;101084.25;;;12.95;97.90
71109;BME280;59614;51.012;-1.648;2022-07-23T05:59:51;101083.38;;;12.95;97.93
71109;BME280;59614;51.012;-1.648;2022-07-23T06:02:16;101085.06;;;12.99;97.43
71109;BME280;59614;51.012;-1.648;2022-07-23T06:04:42;101077.97;;;13.01;97.58
71109;BME280;59614;51.012;-1.648;2022-07-23T06:07:08;101087.41;;;13.18;97.77
71109;BME280;59614;51.012;-1.648;2022-07-23T06:09:33;101083.66;;;13.31;98.11
71109;BME280;59614;51.012;-1.648;2022-07-23T06:11:58;101080.88;;;13.39;97.65
71109;BME280;59614;51.012;-1.648;2022-07-23T06:14:24;101079.66;;;13.58;98.10
71109;BME280;59614;51.012;-1.648;2022-07-23T06:16:49;101078.53;;;13.72;97.21
71109;BME280;59614;51.012;-1.648;2022-07-23T06:19:15;101076.56;;;13.83;96.90
71109;BME280;59614;51.012;-1.648;2022-07-23T06:21:40;101077.19;;;13.96;97.64
71109;BME280;59614;51.012;-1.648;2022-07-23T06:24:06;101077.81;;;14.09;97.52
71109;BME280;59614;51.012;-1.648;2022-07-23T06:26:31;101071.47;;;14.16;97.40
71109;BME280;59614;51.012;-1.648;2022-07-23T06:28:57;101072.47;;;14.11;95.68
71109;BME280;59614;51.012;-1.648;2022-07-23T06:31:22;101077.56;;;14.21;95.57
71109;BME280;59614;51.012;-1.648;2022-07-23T06:33:48;101078.31;;;14.28;95.82
71109;BME280;59614;51.012;-1.648;2022-07-23T06:36:13;101082.31;;;14.48;96.52
71109;BME280;59614;51.012;-1.648;2022-07-23T06:38:39;101075.03;;;14.58;95.37
71109;BME280;59614;51.012;-1.648;2022-07-23T06:41:04;101077.63;;;14.59;94.49
71109;BME280;59614;51.012;-1.648;2022-07-23T06:43:30;101080.06;;;14.70;94.54
71109;BME280;59614;51.012;-1.648;2022-07-23T06:45:56;101089.38;;;14.88;95.58
71109;BME280;59614;51.012;-1.648;2022-07-23T06:48:21;101097.13;;;14.97;95.68
71109;BME280;59614;51.012;-1.648;2022-07-23T06:50:47;101098.56;;;15.12;94.98
71109;BME280;59614;51.012;-1.648;2022-07-23T06:53:13;101087.41;;;15.33;95.71
71109;BME280;59614;51.012;-1.648;2022-07-23T06:55:38;101095.25;;;15.39;93.92
71109;BME280;59614;51.012;-1.648;2022-07-23T06:58:05;101094.81;;;15.56;95.18
71109;BME280;59614;51.012;-1.648;2022-07-23T07:00:31;101100.25;;;15.51;93.59
71109;BME280;59614;51.012;-1.648;2022-07-23T07:02:57;101089.03;;;15.38;93.95
71109;BME280;59614;51.012;-1.648;2022-07-23T07:05:23;101088.31;;;15.33;93.38
71109;BME280;59614;51.012;-1.648;2022-07-23T07:07:53;101096.44;;;15.62;94.41
71109;BME280;59614;51.012;-1.648;2022-07-23T07:10:19;101100.41;;;15.78;94.25
71109;BME280;59614;51.012;-1.648;2022-07-23T07:12:44;101103.66;;;15.91;92.50
71109;BME280;59614;51.012;-1.648;2022-07-23T07:15:10;101109.25;;;16.13;92.86
71109;BME280;59614;51.012;-1.648;2022-07-23T07:17:36;101105.22;;;16.30;91.65
71109;BME280;59614;51.012;-1.648;2022-07-23T07:20:02;101098.88;;;16.64;90.10
71109;BME280;59614;51.012;-1.648;2022-07-23T07:22:28;101095.78;;;16.78;89.55
71109;BME280;59614;51.012;-1.648;2022-07-23T07:24:53;101104.81;;;17.02;88.46
71109;BME280;59614;51.012;-1.648;2022-07-23T07:27:19;101100.72;;;17.19;86.96
71109;BME280;59614;51.012;-1.648;2022-07-23T07:29:44;101090.16;;;17.42;85.85
71109;BME280;59614;51.012;-1.648;2022-07-23T07:32:10;101096.81;;;17.81;86.03
71109;BME280;59614;51.012;-1.648;2022-07-23T07:34:35;101092.50;;;18.02;83.19
71109;BME280;59614;51.012;-1.648;2022-07-23T07:37:01;101103.53;;;18.17;83.78
71109;BME280;59614;51.012;-1.648;2022-07-23T07:39:26;101110.34;;;18.26;82.99
71109;BME280;59614;51.012;-1.648;2022-07-23T07:41:52;101105.50;;;18.35;83.11
71109;BME280;59614;51.012;-1.648;2022-07-23T07:44:17;101107.53;;;18.52;83.43
71109;BME280;59614;51.012;-1.648;2022-07-23T07:46:42;101104.13;;;18.49;81.95
71109;BME280;59614;51.012;-1.648;2022-07-23T07:49:08;101103.59;;;18.63;81.53
71109;BME280;59614;51.012;-1.648;2022-07-23T07:51:34;101104.72;;;18.79;81.88
71109;BME280;59614;51.012;-1.648;2022-07-23T07:54:00;101095.53;;;19.09;82.66
71109;BME280;59614;51.012;-1.648;2022-07-23T07:56:25;101095.09;;;18.97;78.71
71109;BME280;59614;51.012;-1.648;2022-07-23T07:58:51;101089.78;;;19.18;80.56
71109;BME280;59614;51.012;-1.648;2022-07-23T08:01:16;101092.44;;;19.61;80.98
71109;BME280;59614;51.012;-1.648;2022-07-23T08:03:42;101104.34;;;19.54;78.64
71109;BME280;59614;51.012;-1.648;2022-07-23T08:06:08;101092.44;;;19.61;78.71
71109;BME280;59614;51.012;-1.648;2022-07-23T08:08:33;101086.06;;;19.64;77.89
71109;BME280;59614;51.012;-1.648;2022-07-23T08:10:58;101088.31;;;19.74;74.45
71109;BME280;59614;51.012;-1.648;2022-07-23T08:13:24;101091.75;;;19.76;76.25
71109;BME280;59614;51.012;-1.648;2022-07-23T08:15:49;101096.06;;;20.01;74.70
71109;BME280;59614;51.012;-1.648;2022-07-23T08:18:15;101089.78;;;20.21;77.86
71109;BME280;59614;51.012;-1.648;2022-07-23T08:20:40;101098.69;;;20.03;72.42
71109;BME280;59614;51.012;-1.648;2022-07-23T08:23:08;101097.16;;;20.16;76.18
71109;BME280;59614;51.012;-1.648;2022-07-23T08:25:39;101092.97;;;19.69;72.84
71109;BME280;59614;51.012;-1.648;2022-07-23T08:28:10;101098.88;;;19.98;74.73
71109;BME280;59614;51.012;-1.648;2022-07-23T08:30:36;101093.78;;;20.32;76.81
71109;BME280;59614;51.012;-1.648;2022-07-23T08:33:10;101095.53;;;19.72;74.60
71109;BME280;59614;51.012;-1.648;2022-07-23T08:35:42;101091.84;;;19.75;71.70
71109;BME280;59614;51.012;-1.648;2022-07-23T08:38:10;101096.50;;;20.11;74.44
71109;BME280;59614;51.012;-1.648;2022-07-23T08:40:38;101102.28;;;20.21;73.55
71109;BME280;59614;51.012;-1.648;2022-07-23T08:43:05;101102.84;;;20.29;71.08
71109;BME280;59614;51.012;-1.648;2022-07-23T08:45:35;101101.69;;;20.35;67.83
71109;BME280;59614;51.012;-1.648;2022-07-23T08:48:01;101102.19;;;20.62;71.79
71109;BME280;59614;51.012;-1.648;2022-07-23T08:50:28;101099.13;;;20.32;71.60
71109;BME280;59614;51.012;-1.648;2022-07-23T08:52:54;101096.03;;;20.79;69.66
71109;BME280;59614;51.012;-1.648;2022-07-23T08:55:21;101098.75;;;20.97;69.97
71109;BME280;59614;51.012;-1.648;2022-07-23T08:57:52;101089.56;;;21.38;69.31
71109;BME280;59614;51.012;-1.648;2022-07-23T09:00:20;101098.00;;;21.30;65.88
71109;BME280;59614;51.012;-1.648;2022-07-23T09:02:46;101095.06;;;21.35;68.81
71109;BME280;59614;51.012;-1.648;2022-07-23T09:05:13;101100.22;;;21.57;68.07
71109;BME280;59614;51.012;-1.648;2022-07-23T09:08:22;101099.91;;;21.63;68.83
71109;BME280;59614;51.012;-1.648;2022-07-23T09:15:53;101105.78;;;22.05;68.23
71109;BME280;59614;51.012;-1.648;2022-07-23T09:18:27;101098.72;;;22.20;65.57
71109;BME280;59614;51.012;-1.648;2022-07-23T09:21:15;101105.59;;;21.92;65.92
71109;BME280;59614;51.012;-1.648;2022-07-23T09:26:38;101102.34;;;22.19;64.27
71109;BME280;59614;51.012;-1.648;2022-07-23T09:32:00;101104.94;;;21.87;64.77
71109;BME280;59614;51.012;-1.648;2022-07-23T09:34:34;101095.47;;;22.13;64.02
71109;BME280;59614;51.012;-1.648;2022-07-23T09:37:10;101093.59;;;21.82;60.26
71109;BME280;59614;51.012;-1.648;2022-07-23T09:39:35;101095.69;;;21.59;62.05
71109;BME280;59614;51.012;-1.648;2022-07-23T09:42:14;101098.03;;;21.65;62.17
71109;BME280;59614;51.012;-1.648;2022-07-23T09:44:44;101094.16;;;21.53;61.31
71109;BME280;59614;51.012;-1.648;2022-07-23T09:47:10;101095.38;;;21.99;64.95
71109;BME280;59614;51.012;-1.648;2022-07-23T09:49:36;101096.88;;;22.54;60.92
71109;BME280;59614;51.012;-1.648;2022-07-23T09:52:02;101091.84;;;22.80;61.98
71109;BME280;59614;51.012;-1.648;2022-07-23T09:56:58;101088.19;;;22.97;57.08
71109;BME280;59614;51.012;-1.648;2022-07-23T09:59:25;101093.66;;;22.63;59.50
71109;BME280;59614;51.012;-1.648;2022-07-23T10:01:53;101098.34;;;23.08;63.20
71109;BME280;59614;51.012;-1.648;2022-07-23T10:04:21;101096.75;;;23.50;59.29
71109;BME280;59614;51.012;-1.648;2022-07-23T10:06:47;101084.81;;;23.40;61.34
71109;BME280;59614;51.012;-1.648;2022-07-23T10:09:16;101091.81;;;23.73;62.22
71109;BME280;59614;51.012;-1.648;2022-07-23T10:11:46;101085.25;;;23.63;55.60
71109;BME280;59614;51.012;-1.648;2022-07-23T10:14:12;101089.00;;;23.74;56.93
71109;BME280;59614;51.012;-1.648;2022-07-23T10:16:38;101077.16;;;24.35;60.05
71109;BME280;59614;51.012;-1.648;2022-07-23T10:19:04;101066.72;;;24.72;58.37
71109;BME280;59614;51.012;-1.648;2022-07-23T10:21:49;101063.47;;;24.52;52.59
71109;BME280;59614;51.012;-1.648;2022-07-23T10:27:18;101055.41;;;24.38;54.23
71109;BME280;59614;51.012;-1.648;2022-07-23T10:29:55;101061.00;;;23.91;55.39
71109;BME280;59614;51.012;-1.648;2022-07-23T10:35:37;101054.69;;;24.91;54.16
71109;BME280;59614;51.012;-1.648;2022-07-23T10:43:21;101057.94;;;25.36;54.67
71109;BME280;59614;51.012;-1.648;2022-07-23T10:45:47;101045.88;;;25.68;51.94
71109;BME280;59614;51.012;-1.648;2022-07-23T10:48:16;101045.09;;;26.04;57.81
71109;BME280;59614;51.012;-1.648;2022-07-23T10:50:43;101057.56;;;25.55;49.83
71109;BME280;59614;51.012;-1.648;2022-07-23T10:53:17;101057.53;;;25.94;53.94
71109;BME280;59614;51.012;-1.648;2022-07-23T10:58:10;101050.19;;;25.70;46.85
71109;BME280;59614;51.012;-1.648;2022-07-23T11:00:37;101046.28;;;25.62;52.66
71109;BME280;59614;51.012;-1.648;2022-07-23T11:05:53;101049.72;;;26.90;57.36
71109;BME280;59614;51.012;-1.648;2022-07-23T11:08:19;101054.81;;;26.94;52.46
71109;BME280;59614;51.012;-1.648;2022-07-23T11:10:46;101056.63;;;25.29;50.95
71109;BME280;59614;51.012;-1.648;2022-07-23T11:18:57;101045.66;;;25.58;50.47
71109;BME280;59614;51.012;-1.648;2022-07-23T11:24:04;101062.22;;;24.58;53.84
71109;BME280;59614;51.012;-1.648;2022-07-23T11:26:51;101070.81;;;23.93;51.59
71109;BME280;59614;51.012;-1.648;2022-07-23T11:34:42;101059.00;;;23.95;55.55
71109;BME280;59614;51.012;-1.648;2022-07-23T11:37:10;101061.41;;;24.00;53.55
71109;BME280;59614;51.012;-1.648;2022-07-23T11:39:37;101052.81;;;24.78;53.94
71109;BME280;59614;51.012;-1.648;2022-07-23T11:42:05;101057.59;;;25.28;53.52
71109;BME280;59614;51.012;-1.648;2022-07-23T11:44:35;101056.28;;;24.80;54.36
71109;BME280;59614;51.012;-1.648;2022-07-23T11:47:05;101046.50;;;25.46;54.18
71109;BME280;59614;51.012;-1.648;2022-07-23T11:49:30;101056.25;;;25.61;55.18
71109;BME280;59614;51.012;-1.648;2022-07-23T11:52:14;101049.09;;;26.25;53.01
71109;BME280;59614;51.012;-1.648;2022-07-23T11:54:54;101050.81;;;26.00;54.86
71109;BME280;59614;51.012;-1.648;2022-07-23T11:57:24;101042.44;;;24.72;54.07
71109;BME280;59614;51.012;-1.648;2022-07-23T11:59:53;101053.66;;;23.65;53.30
71109;BME280;59614;51.012;-1.648;2022-07-23T12:02:21;101062.34;;;23.70;55.19
71109;BME280;59614;51.012;-1.648;2022-07-23T12:04:49;101055.06;;;24.15;58.10
71109;BME280;59614;51.012;-1.648;2022-07-23T12:07:25;101066.00;;;23.69;56.25
71109;BME280;59614;51.012;-1.648;2022-07-23T12:09:50;101066.44;;;23.47;58.48
71109;BME280;59614;51.012;-1.648;2022-07-23T12:12:16;101063.63;;;22.55;56.77
71109;BME280;59614;51.012;-1.648;2022-07-23T12:14:56;101062.31;;;22.46;58.60
71109;BME280;59614;51.012;-1.648;2022-07-23T12:17:28;101048.41;;;22.38;58.90
71109;BME280;59614;51.012;-1.648;2022-07-23T12:19:54;101033.53;;;22.48;59.86
71109;BME280;59614;51.012;-1.648;2022-07-23T12:22:21;101043.00;;;22.56;60.54
71109;BME280;59614;51.012;-1.648;2022-07-23T12:25:01;101039.50;;;22.70;60.78
71109;BME280;59614;51.012;-1.648;2022-07-23T12:27:28;101042.91;;;23.79;58.51
71109;BME280;59614;51.012;-1.648;2022-07-23T12:29:54;101030.88;;;24.14;55.41
71109;BME280;59614;51.012;-1.648;2022-07-23T12:32:25;101027.72;;;24.49;55.74
71109;BME280;59614;51.012;-1.648;2022-07-23T12:35:05;101037.91;;;24.31;55.75
71109;BME280;59614;51.012;-1.648;2022-07-23T12:37:36;101044.84;;;24.06;54.92
71109;BME280;59614;51.012;-1.648;2022-07-23T12:40:37;101050.97;;;24.23;53.67
71109;BME280;59614;51.012;-1.648;2022-07-23T12:43:09;101062.59;;;24.52;57.43
71109;BME280;59614;51.012;-1.648;2022-07-23T12:48:25;101057.53;;;24.33;58.42
71109;BME280;59614;51.012;-1.648;2022-07-23T12:51:02;101062.75;;;24.21;55.00
71109;BME280;59614;51.012;-1.648;2022-07-23T12:53:36;101063.25;;;24.14;58.13
71109;BME280;59614;51.012;-1.648;2022-07-23T12:56:20;101064.09;;;23.85;57.05
71109;BME280;59614;51.012;-1.648;2022-07-23T12:58:48;101058.84;;;23.53;57.67
71109;BME280;59614;51.012;-1.648;2022-07-23T13:04:08;101066.59;;;23.13;59.33
71109;BME280;59614;51.012;-1.648;2022-07-23T13:09:09;101059.06;;;22.08;61.76
71109;BME280;59614;51.012;-1.648;2022-07-23T13:11:35;101060.06;;;21.89;64.16
71109;BME280;59614;51.012;-1.648;2022-07-23T13:14:01;101059.00;;;21.58;63.12
71109;BME280;59614;51.012;-1.648;2022-07-23T13:16:28;101066.16;;;22.09;64.62
71109;BME280;59614;51.012;-1.648;2022-07-23T13:18:54;101065.34;;;22.40;62.09
71109;BME280;59614;51.012;-1.648;2022-07-23T13:21:22;101065.06;;;22.93;59.29
71109;BME280;59614;51.012;-1.648;2022-07-23T13:23:48;101071.41;;;23.08;59.49
71109;BME280;59614;51.012;-1.648;2022-07-23T13:26:13;101059.63;;;22.46;61.52
71109;BME280;59614;51.012;-1.648;2022-07-23T13:28:39;101060.78;;;22.42;59.69